Time;durP1;ratioP1;P1;durP2;ratioP2;P2;SDS_P1;SDS_P2;PMS_P1;PMS_P2;Temp;Humidity;BMP_temperature;BMP_pressure;BME280_temperature;BME280_humidity;BME280_pressure;Samples;Min_cycle;Max_cycle;Signal;HPM_P1;HPM_P2
2022/09/28 00:00:28;;;;;;;2.50;1.37;;;;;;;10.01;66.66;99004.06;5085486;28;20286;-32
2022/09/28 00:02:56;;;;;;;3.67;1.80;;;;;;;9.99;66.59;98996.22;5087795;28;20312;-32
2022/09/28 00:05:27;;;;;;;2.92;1.80;;;;;;;9.98;66.90;99002.38;5083372;28;20274;-32
2022/09/28 00:07:53;;;;;;;3.05;1.60;;;;;;;9.94;67.29;98990.22;5076300;28;20051;-32
2022/09/28 00:10:22;;;;;;;2.65;1.85;;;;;;;9.92;67.28;98999.09;5083319;28;20112;-32
2022/09/28 00:12:49;;;;;;;3.47;1.80;;;;;;;9.91;67.61;99002.66;5085196;28;20028;-32
2022/09/28 00:15:14;;;;;;;2.92;1.88;;;;;;;9.90;67.20;98998.31;5074502;28;20024;-32
2022/09/28 00:17:39;;;;;;;3.50;1.70;;;;;;;9.88;67.39;98993.94;5079184;28;20085;-32
2022/09/28 00:20:05;;;;;;;3.17;1.73;;;;;;;9.85;67.51;98994.06;5085828;28;20035;-32
2022/09/28 00:22:30;;;;;;;2.30;1.70;;;;;;;9.86;67.17;99001.03;5082220;28;20293;-32
2022/09/28 00:24:55;;;;;;;3.03;1.80;;;;;;;9.86;67.33;98995.78;5083956;28;20032;-32
2022/09/28 00:27:33;;;;;;;2.10;1.43;;;;;;;9.88;66.91;98998.34;5085182;28;20830;-32
2022/09/28 00:30:04;;;;;;;2.78;1.90;;;;;;;9.90;66.76;98990.41;5081029;28;20032;-32
2022/09/28 00:32:29;;;;;;;2.95;1.65;;;;;;;9.92;66.47;98993.84;5082522;28;20028;-32
2022/09/28 00:34:54;;;;;;;3.03;1.80;;;;;;;9.92;66.33;98988.56;5072874;28;20055;-32
2022/09/28 00:37:19;;;;;;;2.67;1.80;;;;;;;9.94;66.21;98979.69;5081142;28;20282;-32
2022/09/28 00:39:47;;;;;;;3.72;1.75;;;;;;;9.95;66.12;98984.06;5090392;28;20278;-32
2022/09/28 00:42:14;;;;;;;3.03;1.80;;;;;;;9.96;65.99;98984.91;5069905;28;20044;-32
2022/09/28 00:44:47;;;;;;;2.72;1.80;;;;;;;9.96;65.66;98977.00;5066514;28;20035;-32
2022/09/28 00:47:48;;;;;;;2.80;1.80;;;;;;;9.95;65.74;98973.53;5089471;28;20027;-32
2022/09/28 00:50:29;;;;;;;2.60;1.90;;;;;;;9.96;65.52;98969.97;5084742;28;20429;-32
2022/09/28 00:53:03;;;;;;;2.85;1.85;;;;;;;9.96;65.48;98979.66;5092892;28;20070;-32
2022/09/28 00:55:50;;;;;;;3.45;1.73;;;;;;;9.95;65.43;98977.94;5091663;28;20033;-32
2022/09/28 00:58:26;;;;;;;2.97;1.80;;;;;;;9.96;65.53;98975.25;5093833;28;20028;-32
2022/09/28 01:00:54;;;;;;;2.38;1.58;;;;;;;9.95;65.48;98975.31;5068681;28;20031;-32
2022/09/28 01:03:20;;;;;;;2.58;1.60;;;;;;;9.94;65.17;98973.59;5089828;28;20032;-32
2022/09/28 01:05:45;;;;;;;2.80;1.70;;;;;;;9.94;65.29;98970.94;5086240;28;20537;-32
2022/09/28 01:08:18;;;;;;;3.13;1.48;;;;;;;9.93;65.21;98963.94;5062436;28;20278;-32
2022/09/28 01:10:44;;;;;;;2.60;1.70;;;;;;;9.94;65.01;98965.69;5074996;28;20030;-32
2022/09/28 01:13:10;;;;;;;2.75;1.67;;;;;;;9.94;65.31;98963.06;5084203;28;20021;-32
2022/09/28 01:15:42;;;;;;;2.45;1.60;;;;;;;9.93;64.90;98963.94;5090969;28;20496;-32
2022/09/28 01:18:16;;;;;;;3.25;1.90;;;;;;;9.93;65.22;98953.41;5090123;28;20038;-32
2022/09/28 01:20:50;;;;;;;2.85;1.63;;;;;;;9.94;64.94;98949.88;5087656;28;20032;-32
2022/09/28 01:23:35;;;;;;;2.75;1.55;;;;;;;9.92;64.90;98941.16;5090553;28;20032;-32
2022/09/28 01:26:52;;;;;;;2.70;1.65;;;;;;;9.91;65.14;98934.19;5050419;28;20031;-32
2022/09/28 01:29:45;;;;;;;3.33;2.17;;;;;;;9.91;65.21;98939.44;5043176;28;20036;-32
2022/09/28 01:32:20;;;;;;;2.95;1.63;;;;;;;9.88;65.19;98936.00;5079523;28;20078;-32
2022/09/28 01:35:03;;;;;;;3.40;2.08;;;;;;;9.87;65.09;98928.19;5061363;28;20115;-32
2022/09/28 01:37:51;;;;;;;2.60;1.70;;;;;;;9.84;65.04;98929.13;5092036;28;20106;-32
2022/09/28 01:40:17;;;;;;;2.70;2.00;;;;;;;9.85;64.86;98937.88;5064271;28;20016;-32
2022/09/28 01:42:45;;;;;;;2.95;1.90;;;;;;;9.84;64.79;98933.53;5074530;28;20027;-32
2022/09/28 01:45:31;;;;;;;4.00;2.15;;;;;;;9.84;64.61;98921.22;5068038;28;20024;-32
2022/09/28 01:48:03;;;;;;;3.15;1.92;;;;;;;9.82;64.68;98916.91;5065075;28;20033;-32
2022/09/28 01:50:29;;;;;;;4.47;1.90;;;;;;;9.78;64.52;98918.81;5055180;28;20063;-32
2022/09/28 01:52:58;;;;;;;3.58;1.88;;;;;;;9.77;64.52;98911.81;5086144;28;20391;-32
2022/09/28 01:55:44;;;;;;;3.40;1.88;;;;;;;9.75;64.26;98913.66;5091237;28;20028;-32
2022/09/28 01:58:37;;;;;;;3.08;1.80;;;;;;;9.72;64.19;98903.22;5087728;28;20016;-32
2022/09/28 02:01:08;;;;;;;2.45;1.70;;;;;;;9.70;64.10;98898.00;5081134;28;20020;-32
2022/09/28 02:03:38;;;;;;;3.10;1.83;;;;;;;9.70;64.14;98910.31;5059992;28;20486;-32
2022/09/28 02:06:09;;;;;;;2.95;2.03;;;;;;;9.67;64.43;98905.16;5076823;28;20073;-32
2022/09/28 02:08:53;;;;;;;2.90;1.98;;;;;;;9.65;64.01;98904.34;5081560;28;20024;-32
2022/09/28 02:11:19;;;;;;;3.08;1.75;;;;;;;9.63;64.23;98902.63;5065518;28;20028;-32
2022/09/28 02:13:49;;;;;;;3.10;1.83;;;;;;;9.61;64.08;98898.31;5083370;28;20036;-32
2022/09/28 02:16:23;;;;;;;3.08;1.90;;;;;;;9.59;64.00;98893.09;5071385;28;20460;-32
2022/09/28 02:18:49;;;;;;;3.47;2.13;;;;;;;9.56;64.02;98890.56;5073380;28;20032;-32
2022/09/28 02:21:30;;;;;;;3.58;2.08;;;;;;;9.55;63.88;98893.25;5086977;28;20055;-32
2022/09/28 02:24:22;;;;;;;2.50;1.73;;;;;;;9.51;63.91;98887.25;5061280;28;20086;-32
2022/09/28 02:26:49;;;;;;;3.65;1.98;;;;;;;9.50;63.94;98888.13;5060158;28;20038;-32
2022/09/28 02:29:16;;;;;;;3.28;1.92;;;;;;;9.47;64.17;98883.84;5062935;28;20402;-32
2022/09/28 02:31:41;;;;;;;3.10;1.85;;;;;;;9.46;64.06;98881.25;5078543;28;20024;-32
2022/09/28 02:34:07;;;;;;;3.38;2.40;;;;;;;9.45;64.15;98884.81;5056929;28;20467;-32
2022/09/28 02:36:33;;;;;;;4.05;2.10;;;;;;;9.43;64.08;98889.25;5063706;28;20024;-32
2022/09/28 02:39:01;;;;;;;2.92;1.77;;;;;;;9.41;64.01;98889.31;5082727;28;20024;-32
2022/09/28 02:41:45;;;;;;;3.40;2.10;;;;;;;9.39;63.92;98892.91;5066314;28;20421;-32
2022/09/28 02:44:18;;;;;;;3.40;2.00;;;;;;;9.36;64.04;98894.72;5065050;28;20109;-33
2022/09/28 02:51:18;;;;;;;3.65;2.30;;;;;;;9.32;64.22;98884.34;5067948;28;20047;-32
2022/09/28 02:54:21;;;;;;;3.78;1.73;;;;;;;9.30;64.18;98887.03;5019290;28;20025;-32
2022/09/28 02:57:15;;;;;;;2.75;1.80;;;;;;;9.30;64.10;98886.19;5082082;28;20089;-32
2022/09/28 02:59:53;;;;;;;2.70;2.03;;;;;;;9.27;64.31;98881.84;5079964;28;20482;-32
2022/09/28 03:02:24;;;;;;;3.72;1.98;;;;;;;9.27;64.03;98883.66;5065226;28;20118;-32
2022/09/28 03:08:34;;;;;;;3.20;1.90;;;;;;;9.21;64.23;98867.13;5077542;28;20313;-32
2022/09/28 03:11:15;;;;;;;2.70;1.90;;;;;;;9.21;64.67;98867.13;5078104;28;20070;-32
2022/09/28 03:13:41;;;;;;;3.00;1.63;;;;;;;9.20;64.45;98865.41;5080078;28;20107;-32
2022/09/28 03:16:16;;;;;;;2.90;1.73;;;;;;;9.20;64.85;98851.41;5061593;28;20028;-33
2022/09/28 03:18:42;;;;;;;2.88;1.77;;;;;;;9.20;64.66;98854.91;5094618;28;20054;-32
2022/09/28 03:21:08;;;;;;;2.43;1.73;;;;;;;9.20;64.77;98848.78;5076466;28;20025;-32
2022/09/28 03:23:33;;;;;;;3.53;1.88;;;;;;;9.20;64.97;98849.63;5064091;28;20285;-32
2022/09/28 03:25:59;;;;;;;2.72;2.10;;;;;;;9.20;64.95;98838.25;5095838;22;20052;-36
2022/09/28 03:28:25;;;;;;;3.95;1.80;;;;;;;9.19;65.08;98836.53;5070105;28;20044;-36
2022/09/28 03:30:51;;;;;;;2.45;1.60;;;;;;;9.19;64.93;98840.03;5068575;28;20056;-36
2022/09/28 03:33:16;;;;;;;2.00;1.17;;;;;;;9.19;65.05;98847.06;5067126;28;20024;-36
2022/09/28 03:35:45;;;;;;;2.00;1.30;;;;;;;9.20;65.12;98848.78;5068960;28;20033;-36
2022/09/28 03:38:10;;;;;;;2.63;1.50;;;;;;;9.20;65.23;98843.50;5052615;28;20764;-36
2022/09/28 03:40:36;;;;;;;2.15;1.50;;;;;;;9.22;65.08;98844.34;5066417;28;20032;-37
2022/09/28 03:43:01;;;;;;;2.60;1.40;;;;;;;9.21;65.18;98840.00;5069441;28;20109;-36
2022/09/28 03:45:26;;;;;;;2.97;1.50;;;;;;;9.22;65.23;98842.56;5067313;28;20078;-36
2022/09/28 03:47:52;;;;;;;2.43;1.30;;;;;;;9.22;65.28;98836.44;5068030;28;20336;-36
2022/09/28 03:50:17;;;;;;;2.00;1.40;;;;;;;9.21;65.05;98835.56;5068235;28;20715;-36
2022/09/28 03:52:42;;;;;;;2.10;1.40;;;;;;;9.21;65.21;98840.81;5068722;28;20479;-36
2022/09/28 03:55:08;;;;;;;2.30;1.20;;;;;;;9.21;65.18;98835.56;5062538;28;20071;-36
2022/09/28 03:57:33;;;;;;;1.90;1.20;;;;;;;9.22;65.24;98836.44;5053891;28;20040;-36
2022/09/28 03:59:59;;;;;;;2.72;1.17;;;;;;;9.22;65.22;98832.06;5066554;28;20036;-36
2022/09/28 04:02:24;;;;;;;1.80;1.13;;;;;;;9.23;65.02;98827.63;5068013;28;20036;-36
2022/09/28 04:04:49;;;;;;;2.10;1.30;;;;;;;9.24;65.20;98829.38;5061854;28;20019;-36
2022/09/28 04:07:15;;;;;;;2.00;1.35;;;;;;;9.23;65.25;98811.84;5071650;28;20293;-36
2022/09/28 04:09:40;;;;;;;2.23;1.43;;;;;;;9.22;65.45;98816.28;5058214;28;20031;-36
2022/09/28 04:12:06;;;;;;;2.30;1.40;;;;;;;9.21;65.33;98808.44;5071790;28;20282;-36
2022/09/28 04:14:31;;;;;;;1.80;1.27;;;;;;;9.22;65.33;98804.88;5065420;28;20089;-36
2022/09/28 04:16:58;;;;;;;2.50;1.40;;;;;;;9.23;65.28;98811.84;5071881;28;20290;-36
2022/09/28 04:19:28;;;;;;;2.08;1.30;;;;;;;9.23;65.33;98801.31;5063687;28;20032;-36
2022/09/28 04:21:53;;;;;;;2.88;1.80;;;;;;;9.24;65.24;98805.69;5060167;28;20024;-36
2022/09/28 04:24:19;;;;;;;3.20;1.50;;;;;;;9.25;65.12;98799.53;5073278;28;20548;-36
2022/09/28 04:26:44;;;;;;;2.20;1.55;;;;;;;9.24;65.24;98798.66;5072621;28;20286;-36
2022/09/28 04:31:54;;;;;;;3.03;1.30;;;;;;;9.25;65.21;98789.00;5071153;28;20721;-35
2022/09/28 04:34:21;;;;;;;2.25;1.30;;;;;;;9.27;65.07;98791.56;5060788;28;20052;-35
2022/09/28 04:36:52;;;;;;;2.03;1.42;;;;;;;9.27;65.37;98781.06;5065320;28;20024;-35
2022/09/28 04:39:21;;;;;;;2.35;1.38;;;;;;;9.27;65.32;98786.31;5075147;28;20514;-35
2022/09/28 04:41:47;;;;;;;2.47;1.33;;;;;;;9.27;65.21;98775.78;5074650;28;20100;-35
2022/09/28 04:44:12;;;;;;;2.08;1.50;;;;;;;9.27;65.06;98781.88;5068846;28;20040;-37
2022/09/28 04:46:38;;;;;;;4.05;1.75;;;;;;;9.27;65.30;98774.00;5069298;28;20029;-35
2022/09/28 04:49:03;;;;;;;2.57;1.30;;;;;;;9.26;65.40;98780.19;5068947;28;20024;-36
2022/09/28 04:51:31;;;;;;;2.30;1.47;;;;;;;9.27;65.27;98770.53;5066205;28;20282;-36
2022/09/28 04:53:57;;;;;;;2.17;1.60;;;;;;;9.29;65.36;98768.69;5068265;28;20283;-36
2022/09/28 04:56:22;;;;;;;3.95;1.40;;;;;;;9.29;64.80;98769.56;5072011;28;20032;-36
2022/09/28 04:58:47;;;;;;;3.00;1.80;;;;;;;9.29;65.26;98768.69;5071659;28;20036;-36
2022/09/28 05:01:15;;;;;;;2.33;1.43;;;;;;;9.28;65.25;98765.22;5070246;28;20328;-36
2022/09/28 05:03:41;;;;;;;2.53;1.67;;;;;;;9.29;64.96;98764.28;5071929;28;20691;-36
2022/09/28 05:06:13;;;;;;;2.42;1.50;;;;;;;9.30;65.11;98766.00;5069039;28;20029;-36
2022/09/28 05:08:38;;;;;;;3.08;1.40;;;;;;;9.30;65.15;98763.38;5069141;28;20020;-35
2022/09/28 05:11:05;;;;;;;2.40;1.30;;;;;;;9.30;65.36;98758.13;5071640;28;20085;-35
2022/09/28 05:13:34;;;;;;;2.28;1.30;;;;;;;9.30;65.08;98762.53;5070454;28;20286;-36
2022/09/28 05:16:32;;;;;;;2.13;1.20;;;;;;;9.32;65.34;98763.31;5067511;28;20036;-36
2022/09/28 05:18:58;;;;;;;3.08;1.80;;;;;;;9.30;65.32;98760.75;5061925;28;20040;-35
2022/09/28 05:21:25;;;;;;;2.42;1.50;;;;;;;9.31;65.48;98754.56;5072143;28;20024;-35
2022/09/28 05:23:50;;;;;;;3.50;1.38;;;;;;;9.32;65.18;98752.81;5072288;28;20078;-36
2022/09/28 05:26:16;;;;;;;2.35;1.23;;;;;;;9.31;65.09;98749.31;5063088;28;20049;-35
2022/09/28 05:28:41;;;;;;;2.50;1.33;;;;;;;9.33;65.28;98759.78;5057478;28;20118;-36
2022/09/28 05:31:06;;;;;;;2.50;1.37;;;;;;;9.32;65.32;98753.69;5070967;28;20174;-36
2022/09/28 05:33:32;;;;;;;2.67;1.40;;;;;;;9.33;65.30;98750.13;5073356;28;20773;-36
2022/09/28 05:35:58;;;;;;;2.65;1.50;;;;;;;9.33;65.31;98738.72;5072595;28;20167;-36
2022/09/28 05:38:23;;;;;;;2.95;1.48;;;;;;;9.35;65.52;98742.19;5073076;28;20016;-36
2022/09/28 05:40:48;;;;;;;2.67;1.45;;;;;;;9.33;65.37;98744.88;5072794;28;20036;-36
2022/09/28 05:43:13;;;;;;;2.80;1.80;;;;;;;9.34;65.41;98749.19;5066689;28;20430;-35
2022/09/28 05:45:39;;;;;;;3.13;1.60;;;;;;;9.34;65.48;98738.69;5064827;28;20072;-36
2022/09/28 05:48:04;;;;;;;1.90;1.30;;;;;;;9.34;65.40;98736.03;5074221;28;20270;-36
2022/09/28 05:50:29;;;;;;;1.93;1.23;;;;;;;9.36;65.45;98731.59;5073285;28;20289;-37
2022/09/28 05:53:05;;;;;;;3.60;1.60;;;;;;;9.35;65.56;98732.53;5073310;28;20314;-35
2022/09/28 05:55:31;;;;;;;3.97;1.60;;;;;;;9.37;65.50;98729.81;5053766;28;20386;-36
2022/09/28 05:58:00;;;;;;;2.00;1.50;;;;;;;9.36;65.54;98728.09;5070624;28;20103;-35
2022/09/28 06:00:26;;;;;;;2.85;1.70;;;;;;;9.36;65.44;98723.72;5067732;28;20049;-37
2022/09/28 06:03:05;;;;;;;2.90;1.58;;;;;;;9.35;65.69;98724.63;5072199;28;20101;-37
2022/09/28 06:05:33;;;;;;;4.28;1.73;;;;;;;9.36;65.68;98726.34;5054933;28;20483;-37
2022/09/28 06:07:59;;;;;;;3.35;1.70;;;;;;;9.36;65.81;98722.84;5074032;28;20107;-37
2022/09/28 06:10:26;;;;;;;2.45;1.38;;;;;;;9.37;65.62;98720.16;5053163;28;20508;-37
2022/09/28 06:12:52;;;;;;;2.83;1.88;;;;;;;9.37;65.64;98721.91;5073193;28;20111;-37
2022/09/28 06:15:18;;;;;;;2.75;1.75;;;;;;;9.37;65.56;98720.16;5071155;28;20028;-37
2022/09/28 06:17:44;;;;;;;4.00;1.90;;;;;;;9.39;65.72;98721.88;5071643;28;20024;-37
2022/09/28 06:20:10;;;;;;;3.72;2.13;;;;;;;9.39;65.80;98727.13;5071739;28;20283;-36
2022/09/28 06:22:36;;;;;;;2.80;1.63;;;;;;;9.38;65.76;98723.66;5070304;28;20021;-37
2022/09/28 06:25:03;;;;;;;3.38;1.88;;;;;;;9.39;65.90;98719.25;5072532;28;20021;-37
2022/09/28 06:27:28;;;;;;;2.97;1.88;;;;;;;9.39;65.85;98716.59;5072170;28;20482;-37
2022/09/28 06:29:53;;;;;;;2.92;2.00;;;;;;;9.39;66.10;98721.88;5071002;28;20032;-37
2022/09/28 06:32:19;;;;;;;3.23;2.07;;;;;;;9.41;66.03;98720.94;5073273;28;20044;-37
2022/09/28 06:34:45;;;;;;;4.47;2.50;;;;;;;9.41;66.13;98720.06;5044901;28;20283;-36
2022/09/28 06:37:10;;;;;;;4.00;2.13;;;;;;;9.40;66.29;98721.81;5072110;28;20025;-37
2022/09/28 06:39:35;;;;;;;3.63;2.17;;;;;;;9.41;66.13;98720.06;5072769;28;20020;-37
2022/09/28 06:42:03;;;;;;;3.33;2.20;;;;;;;9.41;66.08;98720.94;5071254;28;20290;-37
2022/09/28 06:44:29;;;;;;;3.33;2.00;;;;;;;9.43;66.39;98720.84;5072800;28;20283;-36
2022/09/28 06:46:57;;;;;;;4.10;2.22;;;;;;;9.45;65.99;98724.28;5072833;28;20039;-37
2022/09/28 06:49:23;;;;;;;3.97;2.33;;;;;;;9.46;66.31;98718.09;5071810;28;20439;-37
2022/09/28 06:51:49;;;;;;;4.13;2.35;;;;;;;9.47;66.32;98719.84;5071782;28;20064;-37
2022/09/28 06:54:14;;;;;;;3.10;2.25;;;;;;;9.48;66.48;98721.56;5073319;28;20064;-37
2022/09/28 06:56:39;;;;;;;4.72;2.10;;;;;;;9.49;66.45;98720.63;5073138;28;20032;-37
2022/09/28 06:59:05;;;;;;;2.80;1.93;;;;;;;9.50;66.52;98719.72;5054493;28;20073;-37
2022/09/28 07:01:33;;;;;;;3.63;2.10;;;;;;;9.52;66.58;98722.28;5070348;28;20290;-36
2022/09/28 07:04:00;;;;;;;3.47;2.30;;;;;;;9.54;66.71;98720.47;5066692;28;20222;-36
2022/09/28 07:06:27;;;;;;;3.78;2.10;;;;;;;9.54;66.71;98713.41;5072710;28;20028;-37
2022/09/28 07:08:52;;;;;;;2.70;1.80;;;;;;;9.55;67.04;98715.16;5072398;28;20508;-36
2022/09/28 07:11:19;;;;;;;3.10;2.13;;;;;;;9.58;66.93;98717.69;5070548;28;20060;-37
2022/09/28 07:13:45;;;;;;;3.30;2.00;;;;;;;9.60;66.98;98722.88;5072591;28;20258;-37
2022/09/28 07:16:11;;;;;;;3.80;1.93;;;;;;;9.60;67.30;98721.09;5070732;28;20028;-37
2022/09/28 07:18:36;;;;;;;3.28;2.13;;;;;;;9.62;67.35;98724.56;5054711;28;20305;-37
2022/09/28 07:21:03;;;;;;;4.18;2.53;;;;;;;9.63;67.60;98726.25;5054366;28;20060;-37
2022/09/28 07:23:31;;;;;;;3.67;2.63;;;;;;;9.66;67.63;98727.03;5070672;28;20517;-37
2022/09/28 07:25:57;;;;;;;3.95;2.42;;;;;;;9.67;67.75;98731.41;5070337;28;20037;-37
2022/09/28 07:28:22;;;;;;;5.25;2.35;;;;;;;9.68;68.02;98730.50;5072548;28;20023;-37
2022/09/28 07:30:48;;;;;;;3.75;2.42;;;;;;;9.69;67.95;98729.56;5066238;28;20029;-37
2022/09/28 07:33:14;;;;;;;3.95;2.70;;;;;;;9.71;68.15;98730.38;5051275;28;20036;-37
2022/09/28 07:35:41;;;;;;;3.88;2.65;;;;;;;9.73;68.00;98731.19;5069404;28;20081;-37
2022/09/28 07:38:07;;;;;;;3.88;2.45;;;;;;;9.74;68.02;98727.66;5071064;28;20025;-37
2022/09/28 07:43:20;;;;;;;3.60;2.50;;;;;;;9.74;68.23;98738.19;5069338;28;20028;-37
2022/09/28 07:45:51;;;;;;;4.15;2.40;;;;;;;9.75;68.50;98726.72;5071988;28;20028;-37
2022/09/28 07:48:17;;;;;;;3.58;2.17;;;;;;;9.77;68.31;98737.19;5071838;28;20082;-37
2022/09/28 07:50:53;;;;;;;3.30;2.15;;;;;;;9.78;68.38;98739.78;5071794;28;20504;-37
2022/09/28 07:53:23;;;;;;;2.65;2.25;;;;;;;9.80;68.37;98737.94;5070112;28;20047;-37
2022/09/28 07:56:18;;;;;;;3.58;2.30;;;;;;;9.80;68.76;98743.19;5065922;28;20056;-37
2022/09/28 07:58:46;;;;;;;3.40;1.67;;;;;;;9.81;68.86;98738.81;5069379;28;20032;-37
2022/09/28 08:01:14;;;;;;;3.30;1.95;;;;;;;9.84;68.76;98747.44;5070817;28;20064;-37
2022/09/28 08:03:42;;;;;;;3.38;1.70;;;;;;;9.85;68.57;98743.91;5062165;28;20020;-37
2022/09/28 08:06:11;;;;;;;2.83;1.67;;;;;;;9.84;68.91;98744.81;5071471;28;20050;-37
2022/09/28 08:08:43;;;;;;;2.80;1.80;;;;;;;9.87;68.95;98744.69;5071588;28;20025;-37
2022/09/28 08:11:13;;;;;;;2.58;1.60;;;;;;;9.88;68.73;98745.56;5070765;28;20016;-37
2022/09/28 08:13:38;;;;;;;2.65;1.58;;;;;;;9.90;68.99;98756.88;5065095;28;20032;-37
2022/09/28 08:16:07;;;;;;;2.63;1.17;;;;;;;9.88;69.21;98750.81;5063570;28;20056;-37
2022/09/28 08:18:34;;;;;;;3.53;1.20;;;;;;;9.88;68.93;98751.66;5072724;28;20028;-37
2022/09/28 08:23:48;;;;;;;2.78;1.30;;;;;;;9.88;68.72;98746.41;5072874;28;20067;-37
2022/09/28 08:26:13;;;;;;;2.85;1.20;;;;;;;9.90;68.91;98756.03;5070513;28;20343;-37
2022/09/28 08:28:39;;;;;;;1.38;0.90;;;;;;;9.89;68.88;98752.53;5070600;28;20036;-37
2022/09/28 08:31:06;;;;;;;2.80;0.80;;;;;;;9.91;68.75;98755.13;5071397;28;20486;-37
2022/09/28 08:33:31;;;;;;;2.70;0.90;;;;;;;9.92;68.43;98759.47;5067356;28;20743;-37
2022/09/28 08:35:59;;;;;;;1.95;0.88;;;;;;;9.91;68.82;98761.25;5050184;28;20033;-37
2022/09/28 08:38:25;;;;;;;1.52;0.77;;;;;;;9.93;68.84;98766.44;5051762;28;20027;-37
2022/09/28 08:41:25;;;;;;;1.45;0.90;;;;;;;9.93;68.52;98764.66;5050227;28;20520;-37
2022/09/28 08:43:53;;;;;;;1.30;0.70;;;;;;;9.93;68.70;98759.41;5067812;28;20490;-37
2022/09/28 08:46:22;;;;;;;1.40;0.70;;;;;;;9.96;68.51;98769.81;5070445;28;20032;-37
2022/09/28 08:49:28;;;;;;;1.52;0.80;;;;;;;9.96;68.49;98763.69;5070112;28;20028;-37
2022/09/28 08:51:59;;;;;;;1.40;0.70;;;;;;;9.96;68.60;98769.81;5056795;28;20041;-36
2022/09/28 08:54:58;;;;;;;1.58;0.70;;;;;;;10.00;68.39;98767.94;5032798;28;20033;-37
2022/09/28 08:57:32;;;;;;;1.33;0.95;;;;;;;10.00;68.43;98768.78;5070623;28;20032;-37
2022/09/28 08:59:59;;;;;;;1.85;1.00;;;;;;;10.04;68.44;98769.53;5072526;28;20032;-37
2022/09/28 09:02:32;;;;;;;1.77;0.68;;;;;;;10.06;68.38;98770.34;5073099;28;20060;-37
2022/09/28 09:04:58;;;;;;;1.55;0.60;;;;;;;10.08;68.57;98772.91;5073861;28;20107;-37
2022/09/28 09:07:47;;;;;;;0.95;0.60;;;;;;;10.11;68.86;98780.72;5073242;28;20020;-37
2022/09/28 09:10:44;;;;;;;1.20;0.60;;;;;;;10.13;68.56;98771.84;5074933;28;20462;-37
2022/09/28 09:13:31;;;;;;;1.23;0.70;;;;;;;10.17;68.50;98777.00;5072635;28;20086;-37
2022/09/28 09:16:13;;;;;;;1.30;0.60;;;;;;;10.18;68.56;98782.19;5067832;28;20498;-37
2022/09/28 09:19:14;;;;;;;1.30;0.70;;;;;;;10.22;68.49;98781.16;5053407;28;20073;-36
2022/09/28 09:21:49;;;;;;;1.13;0.52;;;;;;;10.26;68.76;98782.75;5053887;28;20048;-35
2022/09/28 09:24:20;;;;;;;0.80;0.50;;;;;;;10.28;68.48;98780.06;5073941;28;20448;-35
2022/09/28 09:26:46;;;;;;;1.25;0.60;;;;;;;10.29;68.79;98776.50;5103173;22;20394;-33
2022/09/28 09:29:20;;;;;;;0.63;0.40;;;;;;;10.34;69.03;98779.81;5093479;28;20030;-33
2022/09/28 09:32:07;;;;;;;0.90;0.65;;;;;;;10.35;69.23;98781.56;5079022;28;20036;-33
2022/09/28 09:34:55;;;;;;;0.70;0.50;;;;;;;10.39;68.34;98785.78;5093496;28;20531;-34
2022/09/28 09:37:24;;;;;;;1.00;0.70;;;;;;;10.44;68.36;98779.47;5073993;28;20544;-33
2022/09/28 09:40:24;;;;;;;1.17;0.70;;;;;;;10.48;68.57;98789.88;5072672;28;20111;-33
2022/09/28 09:42:54;;;;;;;0.65;0.40;;;;;;;10.52;68.26;98787.97;5068025;28;20024;-33
2022/09/28 09:45:34;;;;;;;1.00;0.60;;;;;;;10.57;68.60;98795.72;5072807;28;20029;-34
2022/09/28 09:48:01;;;;;;;1.10;0.70;;;;;;;10.60;68.26;98799.06;5071909;28;20020;-34
2022/09/28 09:50:38;;;;;;;0.70;0.50;;;;;;;10.65;68.26;98794.50;5055941;28;20028;-33
2022/09/28 09:53:14;;;;;;;1.40;0.60;;;;;;;10.71;68.19;98795.16;5073059;28;20486;-33
2022/09/28 09:55:45;;;;;;;1.00;0.60;;;;;;;10.75;68.09;98797.63;5064639;28;20032;-33
2022/09/28 09:58:20;;;;;;;1.20;0.70;;;;;;;10.79;68.18;98795.69;5073567;28;20027;-34
2022/09/28 10:00:49;;;;;;;0.85;0.50;;;;;;;10.84;68.42;98806.06;5073888;28;20057;-34
2022/09/28 10:03:29;;;;;;;0.93;0.40;;;;;;;10.87;68.28;98795.41;5069104;28;20041;-34
2022/09/28 10:06:45;;;;;;;0.93;0.60;;;;;;;10.90;68.29;98801.41;5056861;28;20037;-34
2022/09/28 10:09:23;;;;;;;1.50;0.70;;;;;;;10.94;67.96;98810.03;5050705;28;20112;-34
2022/09/28 10:11:53;;;;;;;0.75;0.40;;;;;;;10.98;68.19;98808.16;5052959;28;20032;-34
2022/09/28 10:14:23;;;;;;;1.30;0.60;;;;;;;11.01;68.24;98810.66;5069552;28;20476;-34
2022/09/28 10:16:51;;;;;;;1.40;0.60;;;;;;;11.02;68.17;98810.59;5051322;28;20024;-33
2022/09/28 10:19:20;;;;;;;1.65;0.80;;;;;;;11.06;68.55;98807.81;5052984;28;20120;-33
2022/09/28 10:22:03;;;;;;;1.17;0.60;;;;;;;11.09;68.54;98813.84;5052703;28;20058;-33
2022/09/28 10:24:34;;;;;;;1.17;0.75;;;;;;;11.10;68.88;98804.16;5055089;28;20056;-33
2022/09/28 10:27:09;;;;;;;1.20;0.70;;;;;;;11.15;68.10;98818.88;5070859;28;20498;-34
2022/09/28 10:29:59;;;;;;;1.48;0.70;;;;;;;11.19;68.41;98818.72;5071165;28;20048;-34
2022/09/28 10:32:27;;;;;;;1.25;0.60;;;;;;;11.22;68.31;98819.47;5053577;28;20020;-34
2022/09/28 10:35:17;;;;;;;1.25;0.52;;;;;;;11.25;67.85;98814.06;5064400;28;20033;-34
2022/09/28 10:37:58;;;;;;;1.30;0.60;;;;;;;11.28;67.92;98813.91;5052541;28;20021;-33
2022/09/28 10:40:45;;;;;;;1.00;0.65;;;;;;;11.30;68.16;98811.22;5053702;28;20048;-33
2022/09/28 10:43:16;;;;;;;1.50;1.08;;;;;;;11.32;67.83;98814.66;5067371;28;20025;-34
2022/09/28 10:46:13;;;;;;;1.65;0.70;;;;;;;11.37;68.37;98827.69;5057521;28;20024;-33
2022/09/28 10:49:00;;;;;;;1.33;0.70;;;;;;;11.40;67.72;98825.75;5043779;28;20434;-33
2022/09/28 10:51:46;;;;;;;1.10;0.80;;;;;;;11.42;67.58;98825.69;5051246;28;20376;-33
2022/09/28 10:54:31;;;;;;;1.30;0.77;;;;;;;11.47;67.86;98828.97;5067781;28;20414;-34
2022/09/28 10:57:25;;;;;;;1.67;0.85;;;;;;;11.50;67.99;98828.00;5069636;28;20045;-33
2022/09/28 10:59:50;;;;;;;1.10;0.60;;;;;;;11.51;68.13;98827.09;5071490;28;20032;-33
2022/09/28 11:02:22;;;;;;;1.23;0.80;;;;;;;11.54;68.26;98832.25;5069844;28;20602;-33
2022/09/28 11:04:56;;;;;;;1.10;0.75;;;;;;;11.57;68.05;98826.81;5059886;28;20291;-33
2022/09/28 11:07:30;;;;;;;1.38;0.70;;;;;;;11.62;67.95;98837.19;5069912;28;20024;-33
2022/09/28 11:09:57;;;;;;;1.50;0.80;;;;;;;11.65;68.07;98840.56;5070275;28;20040;-33
2022/09/28 11:12:25;;;;;;;1.30;1.00;;;;;;;11.68;67.78;98829.00;5069677;28;20070;-33
2022/09/28 11:18:26;;;;;;;1.70;1.38;;;;;;;11.76;67.84;98832.16;5051816;28;20429;-34
2022/09/28 11:20:51;;;;;;;1.70;1.00;;;;;;;11.81;67.24;98831.97;5050129;28;20548;-34
2022/09/28 11:23:20;;;;;;;1.50;0.90;;;;;;;11.85;67.22;98833.56;5061822;28;20127;-34
2022/09/28 11:25:57;;;;;;;1.40;0.98;;;;;;;11.88;67.04;98832.56;5064690;28;20280;-34
2022/09/28 11:28:32;;;;;;;1.35;0.80;;;;;;;11.90;66.94;98828.91;5051646;28;20021;-33
2022/09/28 11:30:58;;;;;;;1.50;0.88;;;;;;;11.93;66.99;98836.72;5061508;28;20486;-33
2022/09/28 11:33:32;;;;;;;1.25;0.73;;;;;;;11.97;66.86;98831.28;5070817;28;20067;-33
2022/09/28 11:36:13;;;;;;;1.45;0.82;;;;;;;11.99;66.69;98829.44;5062973;28;20028;-33
2022/09/28 11:39:10;;;;;;;1.30;0.70;;;;;;;12.01;66.54;98830.22;5051743;28;20028;-33
2022/09/28 11:41:57;;;;;;;1.20;0.70;;;;;;;12.04;66.64;98830.09;5050840;28;20052;-33
2022/09/28 11:44:30;;;;;;;1.20;0.70;;;;;;;12.05;66.97;98830.03;5064607;28;20024;-33
2022/09/28 11:47:23;;;;;;;1.45;0.95;;;;;;;12.07;67.09;98832.59;5070472;28;20028;-33
2022/09/28 11:49:54;;;;;;;2.00;1.10;;;;;;;12.08;67.04;98839.63;5071773;28;20383;-33
2022/09/28 11:52:42;;;;;;;1.50;0.90;;;;;;;12.08;66.88;98829.06;5070828;28;20028;-33
2022/09/28 11:55:18;;;;;;;1.40;1.00;;;;;;;12.13;66.68;98842.03;5067952;28;20032;-34
2022/09/28 11:57:45;;;;;;;1.70;1.08;;;;;;;12.15;66.60;98845.50;5067309;28;20049;-33
2022/09/28 12:00:14;;;;;;;1.80;1.08;;;;;;;12.16;66.77;98849.84;5050918;28;20029;-33
2022/09/28 12:03:16;;;;;;;2.08;1.00;;;;;;;12.18;66.60;98846.19;5052448;28;20062;-33
2022/09/28 12:05:52;;;;;;;1.75;1.20;;;;;;;12.20;66.51;98848.78;5063502;28;20090;-34
2022/09/28 12:08:27;;;;;;;2.35;1.10;;;;;;;12.22;66.22;98854.00;5070726;28;20107;-34
2022/09/28 12:11:15;;;;;;;1.40;0.80;;;;;;;12.24;66.02;98854.78;5054174;28;20074;-34
2022/09/28 12:13:44;;;;;;;1.77;1.02;;;;;;;12.25;65.76;98864.44;5068486;28;20486;-34
2022/09/28 12:16:23;;;;;;;1.42;0.90;;;;;;;12.24;65.58;98866.19;5044308;28;20036;-34
2022/09/28 12:18:56;;;;;;;1.25;0.70;;;;;;;12.25;65.93;98873.22;5071070;28;20032;-33
2022/09/28 12:21:31;;;;;;;1.88;0.80;;;;;;;12.25;66.11;98867.06;5071381;28;20039;-33